createdAt,value
2023-01-25T00:01:45.917Z,27.73
2023-01-25T00:04:13.149Z,28.75
2023-01-25T00:06:40.298Z,26.83
2023-01-25T00:09:07.471Z,27.83
2023-01-25T00:11:34.649Z,24.42
2023-01-25T00:14:01.811Z,26.33
2023-01-25T00:16:29.069Z,23.52
2023-01-25T00:18:56.288Z,21.85
2023-01-25T00:21:24.618Z,25.23
2023-01-25T00:23:51.873Z,24.95
2023-01-25T00:26:19.633Z,26.23
2023-01-25T00:28:51.009Z,23.70
2023-01-25T00:31:26.633Z,27.42
2023-01-25T00:33:57.843Z,23.58
2023-01-25T00:36:40.033Z,24.98
2023-01-25T00:39:07.677Z,21.67
2023-01-25T00:41:34.866Z,26.80
2023-01-25T00:44:02.127Z,21.45
2023-01-25T00:46:29.268Z,26.20
2023-01-25T00:48:57.739Z,25.98
2023-01-25T00:51:25.547Z,25.48
2023-01-25T00:53:52.945Z,25.02
2023-01-25T00:56:20.360Z,27.30
2023-01-25T00:58:47.565Z,22.95
2023-01-25T01:01:15.033Z,23.63
2023-01-25T01:03:42.196Z,24.83
2023-01-25T01:06:10.842Z,27.92
2023-01-25T01:08:42.044Z,25.02
2023-01-25T01:11:10.945Z,25.52
2023-01-25T01:13:38.662Z,24.50
2023-01-25T01:16:08.342Z,29.95
2023-01-25T01:18:36.309Z,29.30
2023-01-25T01:21:04.030Z,29.17
2023-01-25T01:23:31.725Z,27.02
2023-01-25T01:26:05.922Z,26.42
2023-01-25T01:28:33.774Z,30.75
2023-01-25T01:31:04.728Z,26.92
2023-01-25T01:33:32.494Z,28.08
2023-01-25T01:36:00.704Z,28.60
2023-01-25T01:38:27.838Z,28.00
2023-01-25T01:40:55.142Z,30.75
2023-01-25T01:43:23.770Z,29.63
2023-01-25T01:45:58.738Z,29.65
2023-01-25T01:48:39.007Z,29.92
2023-01-25T01:51:12.982Z,27.95
2023-01-25T01:53:42.297Z,34.53
2023-01-25T01:56:11.699Z,29.58
2023-01-25T01:58:39.344Z,30.42
2023-01-25T02:01:06.604Z,29.55
2023-01-25T02:03:34.137Z,27.63
2023-01-25T02:06:03.661Z,29.80
2023-01-25T02:08:36.692Z,25.70
2023-01-25T02:11:04.963Z,27.88
2023-01-25T02:13:32.543Z,29.10
2023-01-25T02:15:59.944Z,30.25
2023-01-25T02:18:27.327Z,31.33
2023-01-25T02:20:57.828Z,28.77
2023-01-25T02:23:40.589Z,26.13
2023-01-25T02:26:07.881Z,23.63
2023-01-25T02:28:45.069Z,27.70
2023-01-25T02:31:12.320Z,24.67
2023-01-25T02:33:40.283Z,20.95
2023-01-25T02:36:07.414Z,25.08
2023-01-25T02:38:39.723Z,23.77
2023-01-25T02:41:16.324Z,24.30
2023-01-25T02:43:43.447Z,23.55
2023-01-25T02:46:14.998Z,23.90
2023-01-25T02:48:42.127Z,27.25
2023-01-25T02:51:10.410Z,21.30
2023-01-25T02:53:37.596Z,24.75
2023-01-25T02:56:05.177Z,23.95
2023-01-25T02:58:32.370Z,25.08
2023-01-25T03:00:59.916Z,24.27
2023-01-25T03:03:27.115Z,22.90
2023-01-25T03:05:54.370Z,24.73
2023-01-25T03:08:21.544Z,23.20
2023-01-25T03:10:48.736Z,25.50
2023-01-25T03:13:15.891Z,21.77
2023-01-25T03:15:43.103Z,23.77
2023-01-25T03:18:10.279Z,25.73
2023-01-25T03:20:37.417Z,22.95
2023-01-25T03:23:04.553Z,27.33
2023-01-25T03:25:31.702Z,23.13
2023-01-25T03:27:58.853Z,24.73
2023-01-25T03:30:26.268Z,22.60
2023-01-25T03:32:53.481Z,20.52
2023-01-25T03:35:20.655Z,23.75
2023-01-25T03:37:47.826Z,24.88
2023-01-25T03:40:15.784Z,22.98
2023-01-25T03:42:42.969Z,28.02
2023-01-25T03:45:10.494Z,27.13
2023-01-25T03:47:37.842Z,25.55
2023-01-25T03:50:05.158Z,22.20
2023-01-25T03:52:48.619Z,25.35
2023-01-25T03:55:16.447Z,20.33
2023-01-25T03:57:43.621Z,20.42
2023-01-25T04:00:12.852Z,24.92
2023-01-25T04:02:40.730Z,23.23
2023-01-25T04:05:08.464Z,21.95
2023-01-25T04:07:35.846Z,22.77
2023-01-25T04:10:03.100Z,19.80
2023-01-25T04:12:30.298Z,24.63
2023-01-25T04:14:57.493Z,24.20
2023-01-25T04:17:24.657Z,23.75
2023-01-25T04:19:51.803Z,22.13
2023-01-25T04:22:19.148Z,27.75
2023-01-25T04:24:46.275Z,23.80
2023-01-25T04:27:13.466Z,24.08
2023-01-25T04:29:41.913Z,26.55
2023-01-25T04:32:09.532Z,26.92
2023-01-25T04:34:36.792Z,25.10
2023-01-25T04:37:03.907Z,21.52
2023-01-25T04:39:31.093Z,25.17
2023-01-25T04:41:58.203Z,24.83
2023-01-25T04:44:25.376Z,24.75
2023-01-25T04:46:52.499Z,19.35
2023-01-25T04:49:19.839Z,19.60
2023-01-25T04:51:47.023Z,18.40
2023-01-25T04:54:14.203Z,21.73
2023-01-25T04:56:41.435Z,20.92
2023-01-25T04:59:08.602Z,19.00
2023-01-25T05:01:35.943Z,22.23
2023-01-25T05:04:03.088Z,19.05
2023-01-25T05:06:30.246Z,20.17
2023-01-25T05:08:57.392Z,18.20
2023-01-25T05:11:24.536Z,20.85
2023-01-25T05:13:52.143Z,23.17
2023-01-25T05:16:19.299Z,20.52
2023-01-25T05:18:49.310Z,20.52
2023-01-25T05:21:35.361Z,23.17
2023-01-25T05:24:02.544Z,21.63
2023-01-25T05:26:48.800Z,19.52
2023-01-25T05:29:15.957Z,20.35
2023-01-25T05:31:43.155Z,20.25
2023-01-25T05:34:10.514Z,22.70
2023-01-25T05:36:37.708Z,18.13
2023-01-25T05:39:08.709Z,19.10
2023-01-25T05:41:35.910Z,18.52
2023-01-25T05:44:03.217Z,17.77
2023-01-25T05:46:30.487Z,20.15
2023-01-25T05:48:57.681Z,18.90
2023-01-25T05:51:24.936Z,19.00
2023-01-25T05:53:54.791Z,18.85
2023-01-25T05:56:22.046Z,17.00
2023-01-25T05:58:53.026Z,23.02
2023-01-25T06:01:20.230Z,15.38
2023-01-25T06:03:47.660Z,19.25
2023-01-25T06:06:14.852Z,23.00
2023-01-25T06:08:42.009Z,16.25
2023-01-25T06:11:14.327Z,16.40
2023-01-25T06:13:41.557Z,14.85
2023-01-25T06:16:09.206Z,17.52
2023-01-25T06:18:36.657Z,20.75
2023-01-25T06:21:04.373Z,16.88
2023-01-25T06:23:31.790Z,16.35
2023-01-25T06:25:59.771Z,18.20
2023-01-25T06:28:26.946Z,15.00
2023-01-25T06:30:54.171Z,13.57
2023-01-25T06:33:21.313Z,12.55
2023-01-25T06:35:48.570Z,13.18
2023-01-25T06:38:15.738Z,16.60
2023-01-25T06:40:42.903Z,12.32
2023-01-25T06:43:10.825Z,12.32
2023-01-25T06:45:38.256Z,13.63
2023-01-25T06:48:05.488Z,12.48
2023-01-25T06:50:32.631Z,13.77
2023-01-25T06:52:59.796Z,16.08
2023-01-25T06:55:26.944Z,14.90
2023-01-25T06:57:54.115Z,15.65
2023-01-25T07:00:21.329Z,16.92
2023-01-25T07:02:48.575Z,16.88
2023-01-25T07:05:15.738Z,17.58
2023-01-25T07:07:46.358Z,22.88
2023-01-25T07:10:13.550Z,18.90
2023-01-25T07:12:40.693Z,18.15
2023-01-25T07:15:08.407Z,14.85
2023-01-25T07:17:36.042Z,15.93
2023-01-25T07:20:03.251Z,18.38
2023-01-25T07:22:30.465Z,14.13
2023-01-25T07:24:58.992Z,13.57
2023-01-25T07:27:26.132Z,13.93
2023-01-25T07:29:53.309Z,15.05
2023-01-25T07:32:20.742Z,14.27
2023-01-25T07:34:47.968Z,14.40
2023-01-25T07:37:15.267Z,15.10
2023-01-25T07:39:48.128Z,13.82
2023-01-25T07:42:15.479Z,12.57
2023-01-25T07:44:42.821Z,13.77
2023-01-25T07:47:10.004Z,15.32
2023-01-25T07:49:37.140Z,14.40
2023-01-25T07:52:04.650Z,14.90
2023-01-25T07:54:31.928Z,13.45
2023-01-25T07:56:59.071Z,12.98
2023-01-25T07:59:26.334Z,12.85
2023-01-25T08:01:53.526Z,13.40
2023-01-25T08:04:20.699Z,13.38
2023-01-25T08:06:47.903Z,14.73
2023-01-25T08:09:17.380Z,16.50
2023-01-25T08:11:44.572Z,14.27
2023-01-25T08:14:11.981Z,17.40
2023-01-25T08:16:39.120Z,12.98
2023-01-25T08:19:06.284Z,13.88
2023-01-25T08:21:34.424Z,17.17
2023-01-25T08:24:03.618Z,13.40
2023-01-25T08:26:30.843Z,14.43
2023-01-25T08:28:58.385Z,15.75
2023-01-25T08:31:26.828Z,13.30
2023-01-25T08:33:54.218Z,10.43
2023-01-25T08:36:23.968Z,11.55
2023-01-25T08:38:54.840Z,14.88
2023-01-25T08:41:22.461Z,14.65
2023-01-25T08:43:49.775Z,13.90
2023-01-25T08:46:17.585Z,17.98
2023-01-25T08:48:45.520Z,16.20
2023-01-25T08:51:13.599Z,15.02
2023-01-25T08:53:40.993Z,16.70
2023-01-25T08:56:09.182Z,19.10
2023-01-25T08:58:38.077Z,15.27
2023-01-25T09:01:06.110Z,15.82
2023-01-25T09:03:36.147Z,15.20
2023-01-25T09:06:03.491Z,13.13
2023-01-25T09:08:30.675Z,15.95
2023-01-25T09:11:01.504Z,14.52
2023-01-25T09:13:28.797Z,14.60
2023-01-25T09:16:09.954Z,12.88
2023-01-25T09:18:37.941Z,15.38
2023-01-25T09:21:09.242Z,15.10
2023-01-25T09:23:50.283Z,15.10
2023-01-25T09:26:19.385Z,14.52
2023-01-25T09:28:50.704Z,14.70
2023-01-25T09:31:22.406Z,13.57
2023-01-25T09:33:51.695Z,18.63
2023-01-25T09:36:19.072Z,17.02
2023-01-25T09:38:46.245Z,15.10
2023-01-25T09:41:28.882Z,16.73
2023-01-25T09:44:14.813Z,12.27
2023-01-25T09:46:52.348Z,14.82
2023-01-25T09:49:28.840Z,14.43
2023-01-25T09:52:08.132Z,15.75
2023-01-25T09:54:46.573Z,16.67
2023-01-25T09:57:22.577Z,13.80
2023-01-25T09:59:51.724Z,13.88
2023-01-25T10:02:30.833Z,15.98
2023-01-25T10:05:01.365Z,14.88
2023-01-25T10:07:31.729Z,13.95
2023-01-25T10:10:06.379Z,14.93
2023-01-25T10:12:36.170Z,12.48
2023-01-25T10:15:03.443Z,14.93
2023-01-25T10:17:36.203Z,15.18
2023-01-25T10:20:10.335Z,15.35
2023-01-25T10:22:42.531Z,15.30
2023-01-25T10:25:22.007Z,15.90
2023-01-25T10:27:50.149Z,26.63
2023-01-25T10:30:26.586Z,18.70
2023-01-25T10:32:56.382Z,16.23
2023-01-25T10:35:34.874Z,15.27
2023-01-25T10:38:11.950Z,15.48
2023-01-25T10:40:44.132Z,20.15
2023-01-25T10:43:17.694Z,19.92
2023-01-25T10:45:45.259Z,16.98
2023-01-25T10:48:16.494Z,15.60
2023-01-25T10:50:46.319Z,17.58
2023-01-25T10:53:22.763Z,15.43
2023-01-25T10:56:00.575Z,14.02
2023-01-25T10:58:31.648Z,14.77
2023-01-25T11:00:58.882Z,12.40
2023-01-25T11:03:34.622Z,15.52
2023-01-25T11:06:01.766Z,15.90
2023-01-25T11:08:31.927Z,15.68
2023-01-25T11:10:59.810Z,15.25
2023-01-25T11:13:28.134Z,13.02
2023-01-25T11:16:07.207Z,16.23
2023-01-25T11:18:38.255Z,17.40
2023-01-25T11:21:05.475Z,16.00
2023-01-25T11:23:33.825Z,18.35
2023-01-25T11:26:12.071Z,17.10
2023-01-25T11:28:39.256Z,13.63
2023-01-25T11:31:06.901Z,17.27
2023-01-25T11:33:34.127Z,16.05
2023-01-25T11:36:14.825Z,21.88
2023-01-25T11:38:48.504Z,19.92
2023-01-25T11:41:18.694Z,18.58
2023-01-25T11:43:45.919Z,17.55
2023-01-25T11:46:22.335Z,17.48
2023-01-25T11:49:06.287Z,18.30
2023-01-25T11:51:33.545Z,19.33
2023-01-25T11:54:39.394Z,21.23
2023-01-25T11:57:21.581Z,17.98
2023-01-25T11:59:57.396Z,18.00
2023-01-25T12:02:30.417Z,20.95
2023-01-25T12:05:21.669Z,17.85
2023-01-25T12:07:57.829Z,19.25
2023-01-25T12:10:31.125Z,18.10
2023-01-25T12:13:07.843Z,17.88
2023-01-25T12:15:38.142Z,22.20
2023-01-25T12:18:08.466Z,19.25
2023-01-25T12:20:38.796Z,19.10
2023-01-25T12:23:09.059Z,17.80
2023-01-25T12:25:42.256Z,17.15
2023-01-25T12:28:15.275Z,18.85
2023-01-25T12:31:00.927Z,19.30
2023-01-25T12:33:31.138Z,20.02
2023-01-25T12:36:04.236Z,26.77
2023-01-25T12:38:36.169Z,25.10
2023-01-25T12:41:04.930Z,22.35
2023-01-25T12:43:32.787Z,21.02
2023-01-25T12:46:00.403Z,16.75
2023-01-25T12:48:37.388Z,20.23
2023-01-25T12:51:05.928Z,20.13
2023-01-25T12:53:41.792Z,22.00
2023-01-25T12:56:10.370Z,18.70
2023-01-25T12:58:43.547Z,23.08
2023-01-25T13:01:28.907Z,24.10
2023-01-25T13:04:25.345Z,26.17
2023-01-25T13:07:00.487Z,24.10
2023-01-25T13:09:40.438Z,22.98
2023-01-25T13:12:11.634Z,24.88
2023-01-25T13:14:40.051Z,27.65
2023-01-25T13:17:21.728Z,24.65
2023-01-25T13:19:49.496Z,21.35
2023-01-25T13:22:36.654Z,24.00
2023-01-25T13:25:03.917Z,24.88
2023-01-25T13:27:34.699Z,29.23
2023-01-25T13:30:03.737Z,30.55
2023-01-25T13:32:33.948Z,28.52
2023-01-25T13:35:01.974Z,26.83
2023-01-25T13:37:30.319Z,24.58
2023-01-25T13:40:08.041Z,23.83
2023-01-25T13:42:37.014Z,24.17
2023-01-25T13:45:18.490Z,22.70
2023-01-25T13:47:59.549Z,23.05
2023-01-25T13:50:27.606Z,25.38
2023-01-25T13:52:57.848Z,25.65
2023-01-25T13:55:25.018Z,25.30
2023-01-25T13:57:52.512Z,28.35
2023-01-25T14:00:19.973Z,26.30
2023-01-25T14:02:49.508Z,30.13
2023-01-25T14:05:23.848Z,33.13
2023-01-25T14:07:52.306Z,30.15
2023-01-25T14:10:23.549Z,31.40
2023-01-25T14:12:52.297Z,30.35
2023-01-25T14:15:20.670Z,34.25
2023-01-25T14:18:04.114Z,28.95
2023-01-25T14:20:31.599Z,30.38
2023-01-25T14:22:58.736Z,29.83
2023-01-25T14:25:28.673Z,27.10
2023-01-25T14:27:57.957Z,29.05
2023-01-25T14:30:35.482Z,25.92
2023-01-25T14:33:04.226Z,29.15
2023-01-25T14:35:42.442Z,28.48
2023-01-25T14:38:22.957Z,25.45
2023-01-25T14:40:51.492Z,27.73
2023-01-25T14:43:18.772Z,27.58
2023-01-25T14:45:46.277Z,29.67
2023-01-25T14:48:32.236Z,30.88
2023-01-25T14:51:26.519Z,22.08
2023-01-25T14:53:59.888Z,24.05
2023-01-25T14:56:29.767Z,25.80
2023-01-25T14:59:00.067Z,25.17
2023-01-25T15:01:32.743Z,23.08
2023-01-25T15:03:59.987Z,26.63
2023-01-25T15:06:27.117Z,26.15
2023-01-25T15:08:54.348Z,25.50
2023-01-25T15:11:58.297Z,24.23
2023-01-25T15:14:27.399Z,26.08
2023-01-25T15:16:58.738Z,32.20
2023-01-25T15:19:27.681Z,33.92
2023-01-25T15:21:55.397Z,30.25
2023-01-25T15:24:23.625Z,33.53
2023-01-25T15:26:52.245Z,28.17
2023-01-25T15:29:25.771Z,27.70
2023-01-25T15:31:53.126Z,28.67
2023-01-25T15:34:29.343Z,29.73
2023-01-25T15:36:56.501Z,28.00
2023-01-25T15:39:23.759Z,24.83
2023-01-25T15:41:50.902Z,29.27
2023-01-25T15:44:20.165Z,27.88
2023-01-25T15:46:49.340Z,28.38
2023-01-25T15:49:18.788Z,30.50
2023-01-25T15:51:46.830Z,30.00
2023-01-25T15:54:14.009Z,29.85
2023-01-25T15:56:42.711Z,26.20
2023-01-25T15:59:14.168Z,31.40
2023-01-25T16:01:41.372Z,33.85
2023-01-25T16:04:10.533Z,35.25
2023-01-25T16:06:38.049Z,28.33
2023-01-25T16:09:15.835Z,27.48
2023-01-25T16:11:43.137Z,31.17
2023-01-25T16:14:10.294Z,28.15
2023-01-25T16:16:52.169Z,34.05
2023-01-25T16:19:21.364Z,29.95
2023-01-25T16:21:48.840Z,33.75
2023-01-25T16:24:16.463Z,30.63
2023-01-25T16:26:49.092Z,29.52
2023-01-25T16:29:16.242Z,24.23
2023-01-25T16:31:43.458Z,27.10
2023-01-25T16:34:10.703Z,32.67
2023-01-25T16:36:39.559Z,23.80
2023-01-25T16:39:13.387Z,26.85
2023-01-25T16:41:40.559Z,24.10
2023-01-25T16:44:07.999Z,22.27
2023-01-25T16:46:35.272Z,23.48
2023-01-25T16:49:05.112Z,20.42
2023-01-25T16:51:33.140Z,23.95
2023-01-25T16:54:00.319Z,21.73
2023-01-25T16:56:31.456Z,24.30
2023-01-25T16:59:01.276Z,24.50
2023-01-25T17:01:28.479Z,25.00
2023-01-25T17:03:56.295Z,23.10
2023-01-25T17:06:24.054Z,25.50
2023-01-25T17:08:51.321Z,22.25
2023-01-25T17:11:19.285Z,23.50
2023-01-25T17:13:53.795Z,21.88
2023-01-25T17:16:22.212Z,23.23
2023-01-25T17:18:54.069Z,24.50
2023-01-25T17:21:21.279Z,22.58
2023-01-25T17:23:51.242Z,22.75
2023-01-25T17:26:19.403Z,22.52
2023-01-25T17:28:47.288Z,22.38
2023-01-25T17:31:15.552Z,24.83
2023-01-25T17:33:42.724Z,22.17
2023-01-25T17:36:09.912Z,22.30
2023-01-25T17:38:37.267Z,21.85
2023-01-25T17:41:08.521Z,25.80
2023-01-25T17:43:36.032Z,24.27
2023-01-25T17:46:12.499Z,21.67
2023-01-25T17:48:40.094Z,24.70
2023-01-25T17:51:07.422Z,20.70
2023-01-25T17:53:34.548Z,21.33
2023-01-25T17:56:02.922Z,21.35
2023-01-25T17:58:30.579Z,22.73
2023-01-25T18:01:11.951Z,21.00
2023-01-25T18:03:40.571Z,26.15
2023-01-25T18:06:09.578Z,24.85
2023-01-25T18:08:40.678Z,25.58
2023-01-25T18:11:08.932Z,23.08
2023-01-25T18:13:39.316Z,21.13
2023-01-25T18:16:07.182Z,20.48
2023-01-25T18:18:34.436Z,25.92
2023-01-25T18:21:06.155Z,24.33
2023-01-25T18:23:33.299Z,21.02
2023-01-25T18:26:00.525Z,22.27
2023-01-25T18:28:27.964Z,22.17
2023-01-25T18:30:59.830Z,21.92
2023-01-25T18:33:27.444Z,24.08
2023-01-25T18:35:57.276Z,27.50
2023-01-25T18:38:24.613Z,28.33
2023-01-25T18:40:51.769Z,25.15
2023-01-25T18:43:19.868Z,27.02
2023-01-25T18:45:47.130Z,24.13
2023-01-25T18:48:14.329Z,25.15
2023-01-25T18:50:41.801Z,26.08
2023-01-25T18:53:12.279Z,25.23
2023-01-25T18:55:39.482Z,22.98
2023-01-25T18:58:07.364Z,23.75
2023-01-25T19:00:35.003Z,23.33
2023-01-25T19:03:02.390Z,24.42
2023-01-25T19:05:29.542Z,25.95
2023-01-25T19:07:57.272Z,23.80
2023-01-25T19:10:24.372Z,24.00
2023-01-25T19:12:51.533Z,25.02
2023-01-25T19:15:18.730Z,27.65
2023-01-25T19:17:45.901Z,27.48
2023-01-25T19:20:13.031Z,28.05
2023-01-25T19:22:40.574Z,27.92
2023-01-25T19:25:08.526Z,26.77
2023-01-25T19:27:35.926Z,25.30
2023-01-25T19:30:03.044Z,29.13
2023-01-25T19:32:30.202Z,27.30
2023-01-25T19:34:57.371Z,24.27
2023-01-25T19:37:24.594Z,29.13
2023-01-25T19:39:51.783Z,27.35
2023-01-25T19:42:19.019Z,20.17
2023-01-25T19:44:46.160Z,25.23
2023-01-25T19:47:13.276Z,26.73
2023-01-25T19:49:40.435Z,25.05
2023-01-25T19:52:07.674Z,22.33
2023-01-25T19:54:34.803Z,26.15
2023-01-25T19:57:01.950Z,24.65
2023-01-25T19:59:29.336Z,23.02
2023-01-25T20:01:57.051Z,24.00
2023-01-25T20:04:24.805Z,19.13
2023-01-25T20:06:52.976Z,24.58
2023-01-25T20:09:27.807Z,24.80
2023-01-25T20:11:55.734Z,25.20
2023-01-25T20:14:23.346Z,22.98
2023-01-25T20:16:52.704Z,25.00
2023-01-25T20:19:20.110Z,20.67
2023-01-25T20:21:47.255Z,25.35
2023-01-25T20:24:14.520Z,24.63
2023-01-25T20:26:43.109Z,24.80
2023-01-25T20:29:11.277Z,21.33
2023-01-25T20:31:41.136Z,20.73
2023-01-25T20:34:10.814Z,22.25
2023-01-25T20:36:37.994Z,19.23
2023-01-25T20:39:06.039Z,21.35
2023-01-25T20:41:33.344Z,22.73
2023-01-25T20:44:01.993Z,22.60
2023-01-25T20:46:33.723Z,20.52
2023-01-25T20:49:01.390Z,22.42
2023-01-25T20:51:28.559Z,21.25
2023-01-25T20:53:56.004Z,19.35
2023-01-25T20:56:23.757Z,22.88
2023-01-25T20:58:51.465Z,21.25
2023-01-25T21:01:20.571Z,21.45
2023-01-25T21:03:47.883Z,21.67
2023-01-25T21:06:15.332Z,22.10
2023-01-25T21:08:42.749Z,24.05
2023-01-25T21:11:11.489Z,18.15
2023-01-25T21:13:38.623Z,23.17
2023-01-25T21:16:07.640Z,23.48
2023-01-25T21:18:35.950Z,24.17
2023-01-25T21:21:03.922Z,22.42
2023-01-25T21:23:33.419Z,21.90
2023-01-25T21:26:01.043Z,22.85
2023-01-25T21:28:29.133Z,23.15
2023-01-25T21:30:56.399Z,23.85
2023-01-25T21:33:24.154Z,27.67
2023-01-25T21:35:54.310Z,29.17
2023-01-25T21:38:21.641Z,26.58
2023-01-25T21:40:48.817Z,24.08
2023-01-25T21:43:17.893Z,24.38
2023-01-25T21:46:03.675Z,25.35
2023-01-25T21:48:49.629Z,22.05
2023-01-25T21:51:35.549Z,22.50
2023-01-25T21:54:02.710Z,23.80
2023-01-25T21:56:30.246Z,25.50
2023-01-25T21:58:57.374Z,25.80
2023-01-25T22:01:24.619Z,24.73
2023-01-25T22:03:52.176Z,23.95
2023-01-25T22:06:19.812Z,25.38
2023-01-25T22:08:47.215Z,21.75
2023-01-25T22:11:14.782Z,22.58
2023-01-25T22:13:41.958Z,22.60
2023-01-25T22:16:10.150Z,18.85
2023-01-25T22:18:41.633Z,24.27
2023-01-25T22:21:13.859Z,23.80
2023-01-25T22:23:40.983Z,23.95
2023-01-25T22:26:09.577Z,23.13
2023-01-25T22:28:47.439Z,20.88
2023-01-25T22:31:33.225Z,22.13
2023-01-25T22:34:00.501Z,22.95
2023-01-25T22:36:28.819Z,19.58
2023-01-25T22:38:56.014Z,21.45
2023-01-25T22:41:24.280Z,21.70
2023-01-25T22:43:51.734Z,22.27
2023-01-25T22:46:20.039Z,24.80
2023-01-25T22:48:47.595Z,24.80
2023-01-25T22:51:17.838Z,22.02
2023-01-25T22:53:45.046Z,23.85
2023-01-25T22:56:18.999Z,27.73
2023-01-25T22:58:46.799Z,21.53
2023-01-25T23:01:18.060Z,22.15
2023-01-25T23:03:45.502Z,23.13
2023-01-25T23:06:13.722Z,21.08
2023-01-25T23:08:40.966Z,19.40
2023-01-25T23:11:12.554Z,23.30
2023-01-25T23:13:39.985Z,27.52
2023-01-25T23:16:08.287Z,25.02
2023-01-25T23:18:50.779Z,23.05
2023-01-25T23:21:18.686Z,24.67
2023-01-25T23:23:46.247Z,27.10
2023-01-25T23:26:13.787Z,21.20
2023-01-25T23:28:40.922Z,25.70
2023-01-25T23:31:18.664Z,24.83
2023-01-25T23:33:50.167Z,23.75
2023-01-25T23:36:19.091Z,25.95
2023-01-25T23:38:46.661Z,26.10
2023-01-25T23:41:14.492Z,21.80
2023-01-25T23:43:41.697Z,26.02
2023-01-25T23:46:09.527Z,20.40
2023-01-25T23:48:36.719Z,25.80
2023-01-25T23:51:04.060Z,23.50
2023-01-25T23:53:31.555Z,21.40
2023-01-25T23:56:00.444Z,24.02
2023-01-25T23:58:27.957Z,22.35
